sensor_id;sensor_type;location;lat;lon;timestamp;noise_LAeq;noise_LA_min;noise_LA_max;noise_LA01;noise_LA95
45109;Laerm;30447;48.742;8.972;2024-02-16T00:01:41;39.68;36.20;44.11;;
45109;Laerm;30447;48.742;8.972;2024-02-16T00:04:08;39.66;35.66;44.80;;
45109;Laerm;30447;48.742;8.972;2024-02-16T00:06:35;38.93;35.04;43.09;;
45109;Laerm;30447;48.742;8.972;2024-02-16T00:09:02;39.45;34.69;44.69;;
45109;Laerm;30447;48.742;8.972;2024-02-16T00:11:28;39.03;35.04;43.34;;
45109;Laerm;30447;48.742;8.972;2024-02-16T00:13:55;38.79;33.44;42.59;;
45109;Laerm;30447;48.742;8.972;2024-02-16T00:16:21;39.04;33.44;42.82;;
45109;Laerm;30447;48.742;8.972;2024-02-16T00:18:48;40.34;35.66;44.51;;
45109;Laerm;30447;48.742;8.972;2024-02-16T00:21:15;39.87;35.04;48.32;;
45109;Laerm;30447;48.742;8.972;2024-02-16T00:23:43;39.07;35.36;42.16;;
45109;Laerm;30447;48.742;8.972;2024-02-16T00:26:10;39.61;36.20;42.47;;
45109;Laerm;30447;48.742;8.972;2024-02-16T00:28:37;40.88;35.94;45.42;;
45109;Laerm;30447;48.742;8.972;2024-02-16T00:31:04;40.67;36.45;45.14;;
45109;Laerm;30447;48.742;8.972;2024-02-16T00:33:31;39.18;35.31;44.31;;
45109;Laerm;30447;48.742;8.972;2024-02-16T00:35:58;38.89;35.04;42.41;;
45109;Laerm;30447;48.742;8.972;2024-02-16T00:38:25;40.25;35.04;45.54;;
45109;Laerm;30447;48.742;8.972;2024-02-16T00:40:51;40.21;36.45;43.85;;
45109;Laerm;30447;48.742;8.972;2024-02-16T00:43:18;39.15;33.90;42.03;;
45109;Laerm;30447;48.742;8.972;2024-02-16T00:45:45;38.86;34.31;41.82;;
45109;Laerm;30447;48.742;8.972;2024-02-16T00:48:12;39.55;35.66;45.83;;
45109;Laerm;30447;48.742;8.972;2024-02-16T00:50:38;40.28;35.36;43.99;;
45109;Laerm;30447;48.742;8.972;2024-02-16T00:53:05;40.22;35.36;45.11;;
45109;Laerm;30447;48.742;8.972;2024-02-16T00:55:32;39.08;33.90;44.58;;
45109;Laerm;30447;48.742;8.972;2024-02-16T00:57:58;39.57;34.31;44.47;;
45109;Laerm;30447;48.742;8.972;2024-02-16T01:00:25;38.67;34.69;41.61;;
45109;Laerm;30447;48.742;8.972;2024-02-16T01:02:52;38.72;33.90;42.03;;
45109;Laerm;30447;48.742;8.972;2024-02-16T01:05:19;38.26;33.44;41.53;;
45109;Laerm;30447;48.742;8.972;2024-02-16T01:07:46;39.16;34.31;43.94;;
45109;Laerm;30447;48.742;8.972;2024-02-16T01:10:13;39.27;35.04;44.94;;
45109;Laerm;30447;48.742;8.972;2024-02-16T01:12:39;39.07;35.04;42.85;;
45109;Laerm;30447;48.742;8.972;2024-02-16T01:15:07;37.99;33.90;41.53;;
45109;Laerm;30447;48.742;8.972;2024-02-16T01:17:33;38.40;33.44;45.39;;
45109;Laerm;30447;48.742;8.972;2024-02-16T01:20:00;38.38;34.69;46.28;;
45109;Laerm;30447;48.742;8.972;2024-02-16T01:22:27;38.50;33.90;42.47;;
45109;Laerm;30447;48.742;8.972;2024-02-16T01:24:56;39.00;34.69;43.29;;
45109;Laerm;30447;48.742;8.972;2024-02-16T01:27:23;39.23;35.36;42.71;;
45109;Laerm;30447;48.742;8.972;2024-02-16T01:29:49;39.90;36.20;45.75;;
45109;Laerm;30447;48.742;8.972;2024-02-16T01:32:16;40.41;36.20;46.69;;
45109;Laerm;30447;48.742;8.972;2024-02-16T01:34:42;39.48;35.94;43.19;;
45109;Laerm;30447;48.742;8.972;2024-02-16T01:37:13;40.10;37.32;44.76;;
45109;Laerm;30447;48.742;8.972;2024-02-16T01:39:40;39.79;36.56;46.87;;
45109;Laerm;30447;48.742;8.972;2024-02-16T01:42:06;41.78;38.21;45.36;;
45109;Laerm;30447;48.742;8.972;2024-02-16T01:44:33;39.50;34.69;45.86;;
45109;Laerm;30447;48.742;8.972;2024-02-16T01:47:00;38.27;34.31;42.82;;
45109;Laerm;30447;48.742;8.972;2024-02-16T01:49:28;38.37;34.31;42.16;;
45109;Laerm;30447;48.742;8.972;2024-02-16T01:51:55;38.42;34.31;42.82;;
45109;Laerm;30447;48.742;8.972;2024-02-16T01:54:22;38.77;34.31;42.71;;
45109;Laerm;30447;48.742;8.972;2024-02-16T01:56:50;38.97;34.31;43.09;;
45109;Laerm;30447;48.742;8.972;2024-02-16T01:59:17;38.59;34.69;42.09;;
45109;Laerm;30447;48.742;8.972;2024-02-16T02:01:44;38.59;33.44;41.82;;
45109;Laerm;30447;48.742;8.972;2024-02-16T02:04:10;38.08;34.69;41.89;;
45109;Laerm;30447;48.742;8.972;2024-02-16T02:06:37;38.28;33.90;41.53;;
45109;Laerm;30447;48.742;8.972;2024-02-16T02:09:05;39.28;35.36;43.29;;
45109;Laerm;30447;48.742;8.972;2024-02-16T02:11:31;39.82;32.35;45.48;;
45109;Laerm;30447;48.742;8.972;2024-02-16T02:13:58;38.45;33.90;41.96;;
45109;Laerm;30447;48.742;8.972;2024-02-16T02:16:24;38.74;34.69;42.76;;
45109;Laerm;30447;48.742;8.972;2024-02-16T02:18:53;38.56;34.31;43.77;;
45109;Laerm;30447;48.742;8.972;2024-02-16T02:21:19;38.56;34.69;42.65;;
45109;Laerm;30447;48.742;8.972;2024-02-16T02:23:46;39.55;33.90;43.90;;
45109;Laerm;30447;48.742;8.972;2024-02-16T02:26:15;38.63;33.09;43.14;;
45109;Laerm;30447;48.742;8.972;2024-02-16T02:28:45;39.01;34.31;43.14;;
45109;Laerm;30447;48.742;8.972;2024-02-16T02:31:12;38.15;33.90;42.47;;
45109;Laerm;30447;48.742;8.972;2024-02-16T02:33:39;39.86;34.69;44.35;;
45109;Laerm;30447;48.742;8.972;2024-02-16T02:36:06;40.15;35.04;43.90;;
45109;Laerm;30447;48.742;8.972;2024-02-16T02:38:32;38.52;34.69;42.98;;
45109;Laerm;30447;48.742;8.972;2024-02-16T02:40:59;39.42;35.66;42.65;;
45109;Laerm;30447;48.742;8.972;2024-02-16T02:43:26;38.73;34.69;42.82;;
45109;Laerm;30447;48.742;8.972;2024-02-16T02:45:52;38.27;32.93;41.14;;
45109;Laerm;30447;48.742;8.972;2024-02-16T02:48:19;38.66;34.69;42.03;;
45109;Laerm;30447;48.742;8.972;2024-02-16T02:50:46;38.42;33.44;41.14;;
45109;Laerm;30447;48.742;8.972;2024-02-16T02:53:12;38.80;35.04;42.16;;
45109;Laerm;30447;48.742;8.972;2024-02-16T02:55:39;39.13;35.04;41.61;;
45109;Laerm;30447;48.742;8.972;2024-02-16T02:58:05;39.32;34.69;43.29;;
45109;Laerm;30447;48.742;8.972;2024-02-16T03:00:32;38.89;33.90;43.04;;
45109;Laerm;30447;48.742;8.972;2024-02-16T03:02:59;38.66;34.31;41.30;;
45109;Laerm;30447;48.742;8.972;2024-02-16T03:05:25;38.80;34.69;43.44;;
45109;Laerm;30447;48.742;8.972;2024-02-16T03:07:52;38.69;33.90;43.04;;
45109;Laerm;30447;48.742;8.972;2024-02-16T03:10:19;38.57;34.31;41.53;;
45109;Laerm;30447;48.742;8.972;2024-02-16T03:12:48;39.23;33.90;46.38;;
45109;Laerm;30447;48.742;8.972;2024-02-16T03:15:18;39.30;34.31;43.54;;
45109;Laerm;30447;48.742;8.972;2024-02-16T03:17:44;39.53;35.66;43.68;;
45109;Laerm;30447;48.742;8.972;2024-02-16T03:20:11;40.48;35.94;45.39;;
45109;Laerm;30447;48.742;8.972;2024-02-16T03:22:37;39.06;34.31;42.29;;
45109;Laerm;30447;48.742;8.972;2024-02-16T03:25:04;38.66;33.90;43.90;;
45109;Laerm;30447;48.742;8.972;2024-02-16T03:27:31;38.42;34.31;41.22;;
45109;Laerm;30447;48.742;8.972;2024-02-16T03:29:58;39.17;34.69;42.71;;
45109;Laerm;30447;48.742;8.972;2024-02-16T03:32:24;39.27;34.31;44.58;;
45109;Laerm;30447;48.742;8.972;2024-02-16T03:34:51;39.36;36.20;41.96;;
45109;Laerm;30447;48.742;8.972;2024-02-16T03:37:18;40.19;34.69;43.63;;
45109;Laerm;30447;48.742;8.972;2024-02-16T03:39:44;40.45;37.32;43.72;;
45109;Laerm;30447;48.742;8.972;2024-02-16T03:42:11;40.27;35.94;45.20;;
45109;Laerm;30447;48.742;8.972;2024-02-16T03:44:37;39.73;35.04;42.30;;
45109;Laerm;30447;48.742;8.972;2024-02-16T03:47:04;39.85;36.45;42.82;;
45109;Laerm;30447;48.742;8.972;2024-02-16T03:49:30;39.61;35.36;44.69;;
45109;Laerm;30447;48.742;8.972;2024-02-16T03:51:57;39.64;35.66;42.53;;
45109;Laerm;30447;48.742;8.972;2024-02-16T03:54:24;39.82;36.45;43.85;;
45109;Laerm;30447;48.742;8.972;2024-02-16T03:56:54;41.41;37.12;56.97;;
45109;Laerm;30447;48.742;8.972;2024-02-16T03:59:21;40.65;37.12;45.48;;
45109;Laerm;30447;48.742;8.972;2024-02-16T04:01:51;40.28;37.32;44.43;;
45109;Laerm;30447;48.742;8.972;2024-02-16T04:04:18;40.23;36.20;43.49;;
45109;Laerm;30447;48.742;8.972;2024-02-16T04:06:45;40.85;37.52;43.86;;
45109;Laerm;30447;48.742;8.972;2024-02-16T04:09:11;40.64;37.12;43.29;;
45109;Laerm;30447;48.742;8.972;2024-02-16T04:11:38;41.92;39.34;46.18;;
45109;Laerm;30447;48.742;8.972;2024-02-16T04:14:05;41.81;38.95;47.90;;
45109;Laerm;30447;48.742;8.972;2024-02-16T04:16:31;42.02;38.95;44.58;;
45109;Laerm;30447;48.742;8.972;2024-02-16T04:18:58;41.62;38.67;45.36;;
45109;Laerm;30447;48.742;8.972;2024-02-16T04:21:25;42.64;39.34;45.04;;
45109;Laerm;30447;48.742;8.972;2024-02-16T04:23:51;41.57;38.81;43.94;;
45109;Laerm;30447;48.742;8.972;2024-02-16T04:26:18;41.42;38.05;44.19;;
45109;Laerm;30447;48.742;8.972;2024-02-16T04:28:44;41.03;36.91;43.86;;
45109;Laerm;30447;48.742;8.972;2024-02-16T04:31:11;41.21;38.37;43.94;;
45109;Laerm;30447;48.742;8.972;2024-02-16T04:33:38;42.20;39.99;46.33;;
45109;Laerm;30447;48.742;8.972;2024-02-16T04:36:08;41.99;38.81;46.43;;
45109;Laerm;30447;48.742;8.972;2024-02-16T04:38:35;41.72;38.67;44.69;;
45109;Laerm;30447;48.742;8.972;2024-02-16T04:41:01;42.17;39.46;44.94;;
45109;Laerm;30447;48.742;8.972;2024-02-16T04:43:28;41.60;39.08;44.51;;
45109;Laerm;30447;48.742;8.972;2024-02-16T04:45:54;41.48;38.52;44.03;;
45109;Laerm;30447;48.742;8.972;2024-02-16T04:48:21;42.01;38.05;45.04;;
45109;Laerm;30447;48.742;8.972;2024-02-16T04:50:48;41.80;38.95;46.13;;
45109;Laerm;30447;48.742;8.972;2024-02-16T04:53:15;41.91;38.67;45.80;;
45109;Laerm;30447;48.742;8.972;2024-02-16T04:55:42;41.37;38.52;44.07;;
45109;Laerm;30447;48.742;8.972;2024-02-16T04:58:08;42.05;38.67;50.09;;
45109;Laerm;30447;48.742;8.972;2024-02-16T05:00:37;41.60;39.08;44.15;;
45109;Laerm;30447;48.742;8.972;2024-02-16T05:03:04;41.74;38.37;45.86;;
45109;Laerm;30447;48.742;8.972;2024-02-16T05:05:30;43.29;40.33;51.44;;
45109;Laerm;30447;48.742;8.972;2024-02-16T05:07:57;41.92;39.21;47.02;;
45109;Laerm;30447;48.742;8.972;2024-02-16T05:10:24;41.46;38.37;46.84;;
45109;Laerm;30447;48.742;8.972;2024-02-16T05:12:50;41.42;38.18;45.04;;
45109;Laerm;30447;48.742;8.972;2024-02-16T05:15:17;41.79;38.37;50.49;;
45109;Laerm;30447;48.742;8.972;2024-02-16T05:17:47;41.89;39.21;46.52;;
45109;Laerm;30447;48.742;8.972;2024-02-16T05:20:18;42.28;39.46;45.11;;
45109;Laerm;30447;48.742;8.972;2024-02-16T05:22:46;42.51;39.46;44.65;;
45109;Laerm;30447;48.742;8.972;2024-02-16T05:25:13;42.84;40.23;45.48;;
45109;Laerm;30447;48.742;8.972;2024-02-16T05:27:41;43.70;41.14;54.41;;
45109;Laerm;30447;48.742;8.972;2024-02-16T05:30:12;43.01;40.53;47.96;;
45109;Laerm;30447;48.742;8.972;2024-02-16T05:32:42;44.53;41.14;53.44;;
45109;Laerm;30447;48.742;8.972;2024-02-16T05:35:09;43.55;40.62;46.07;;
45109;Laerm;30447;48.742;8.972;2024-02-16T05:37:44;43.67;41.46;47.12;;
45109;Laerm;30447;48.742;8.972;2024-02-16T05:40:14;44.28;41.30;49.65;;
45109;Laerm;30447;48.742;8.972;2024-02-16T05:42:57;43.77;41.14;52.54;;
45109;Laerm;30447;48.742;8.972;2024-02-16T05:45:25;43.64;40.98;54.37;;
45109;Laerm;30447;48.742;8.972;2024-02-16T05:47:52;43.59;41.61;47.68;;
45109;Laerm;30447;48.742;8.972;2024-02-16T05:50:21;43.67;41.06;46.35;;
45109;Laerm;30447;48.742;8.972;2024-02-16T05:52:47;44.13;41.82;49.10;;
45109;Laerm;30447;48.742;8.972;2024-02-16T05:55:16;44.47;41.46;52.31;;
45109;Laerm;30447;48.742;8.972;2024-02-16T05:57:45;44.86;42.16;51.28;;
45109;Laerm;30447;48.742;8.972;2024-02-16T06:00:12;45.76;42.22;56.05;;
45109;Laerm;30447;48.742;8.972;2024-02-16T06:02:39;45.92;43.04;56.30;;
45109;Laerm;30447;48.742;8.972;2024-02-16T06:05:06;45.53;42.88;59.21;;
45109;Laerm;30447;48.742;8.972;2024-02-16T06:07:35;45.49;42.76;57.48;;
45109;Laerm;30447;48.742;8.972;2024-02-16T06:10:05;45.23;42.82;50.82;;
45109;Laerm;30447;48.742;8.972;2024-02-16T06:12:36;45.78;42.47;52.20;;
45109;Laerm;30447;48.742;8.972;2024-02-16T06:15:05;44.54;42.47;48.51;;
45109;Laerm;30447;48.742;8.972;2024-02-16T06:17:32;46.11;42.98;53.66;;
45109;Laerm;30447;48.742;8.972;2024-02-16T06:19:58;45.49;42.59;52.42;;
45109;Laerm;30447;48.742;8.972;2024-02-16T06:22:25;44.21;42.09;47.77;;
45109;Laerm;30447;48.742;8.972;2024-02-16T06:24:51;44.97;42.59;54.12;;
45109;Laerm;30447;48.742;8.972;2024-02-16T06:27:18;44.75;41.96;51.22;;
45109;Laerm;30447;48.742;8.972;2024-02-16T06:29:46;45.32;42.88;54.34;;
45109;Laerm;30447;48.742;8.972;2024-02-16T06:32:12;45.31;42.22;52.37;;
45109;Laerm;30447;48.742;8.972;2024-02-16T06:34:40;45.13;42.22;52.83;;
45109;Laerm;30447;48.742;8.972;2024-02-16T06:37:07;45.07;42.35;53.65;;
45109;Laerm;30447;48.742;8.972;2024-02-16T06:39:34;45.12;42.09;60.63;;
45109;Laerm;30447;48.742;8.972;2024-02-16T06:42:00;44.60;41.89;53.85;;
45109;Laerm;30447;48.742;8.972;2024-02-16T06:44:27;44.28;41.30;54.04;;
45109;Laerm;30447;48.742;8.972;2024-02-16T06:46:53;43.84;41.14;53.45;;
45109;Laerm;30447;48.742;8.972;2024-02-16T06:49:20;43.85;40.89;52.45;;
45109;Laerm;30447;48.742;8.972;2024-02-16T06:51:47;43.47;41.30;53.16;;
45109;Laerm;30447;48.742;8.972;2024-02-16T06:54:13;43.58;40.71;51.68;;
45109;Laerm;30447;48.742;8.972;2024-02-16T06:56:41;43.82;40.33;57.14;;
45109;Laerm;30447;48.742;8.972;2024-02-16T06:59:08;42.82;40.43;52.82;;
45109;Laerm;30447;48.742;8.972;2024-02-16T07:01:35;43.77;39.92;52.82;;
45109;Laerm;30447;48.742;8.972;2024-02-16T07:04:02;44.01;41.14;50.14;;
45109;Laerm;30447;48.742;8.972;2024-02-16T07:06:29;44.04;40.43;48.90;;
45109;Laerm;30447;48.742;8.972;2024-02-16T07:08:56;44.42;41.53;52.56;;
45109;Laerm;30447;48.742;8.972;2024-02-16T07:11:22;43.92;40.62;54.57;;
45109;Laerm;30447;48.742;8.972;2024-02-16T07:13:49;45.18;40.62;64.95;;
45109;Laerm;30447;48.742;8.972;2024-02-16T07:16:15;44.47;41.30;50.85;;
45109;Laerm;30447;48.742;8.972;2024-02-16T07:18:42;43.73;40.53;55.82;;
45109;Laerm;30447;48.742;8.972;2024-02-16T07:21:09;43.60;39.70;50.87;;
45109;Laerm;30447;48.742;8.972;2024-02-16T07:23:37;43.10;39.92;54.72;;
45109;Laerm;30447;48.742;8.972;2024-02-16T07:26:04;43.23;39.70;54.56;;
45109;Laerm;30447;48.742;8.972;2024-02-16T07:28:31;43.10;40.03;52.94;;
45109;Laerm;30447;48.742;8.972;2024-02-16T07:30:58;43.10;40.80;53.53;;
45109;Laerm;30447;48.742;8.972;2024-02-16T07:33:24;43.03;39.92;48.58;;
45109;Laerm;30447;48.742;8.972;2024-02-16T07:35:54;43.49;40.80;51.17;;
45109;Laerm;30447;48.742;8.972;2024-02-16T07:38:21;43.40;40.62;51.33;;
45109;Laerm;30447;48.742;8.972;2024-02-16T07:40:48;43.39;40.98;51.10;;
45109;Laerm;30447;48.742;8.972;2024-02-16T07:43:16;46.02;42.29;52.38;;
45109;Laerm;30447;48.742;8.972;2024-02-16T07:45:44;45.82;42.88;53.65;;
45109;Laerm;30447;48.742;8.972;2024-02-16T07:48:11;45.31;42.16;53.71;;
45109;Laerm;30447;48.742;8.972;2024-02-16T07:50:37;44.19;41.38;52.62;;
45109;Laerm;30447;48.742;8.972;2024-02-16T07:53:04;44.42;41.89;49.62;;
45109;Laerm;30447;48.742;8.972;2024-02-16T07:55:30;46.19;42.03;59.60;;
45109;Laerm;30447;48.742;8.972;2024-02-16T07:57:57;45.12;42.16;54.30;;
45109;Laerm;30447;48.742;8.972;2024-02-16T08:00:25;45.62;42.22;55.50;;
45109;Laerm;30447;48.742;8.972;2024-02-16T08:02:51;45.58;42.16;56.51;;
45109;Laerm;30447;48.742;8.972;2024-02-16T08:05:18;45.09;41.68;57.86;;
45109;Laerm;30447;48.742;8.972;2024-02-16T08:07:46;47.27;41.96;57.60;;
45109;Laerm;30447;48.742;8.972;2024-02-16T08:10:13;44.24;41.38;52.54;;
45109;Laerm;30447;48.742;8.972;2024-02-16T08:12:40;44.53;41.61;52.43;;
45109;Laerm;30447;48.742;8.972;2024-02-16T08:15:07;44.62;41.96;50.37;;
45109;Laerm;30447;48.742;8.972;2024-02-16T08:17:36;44.23;41.75;49.41;;
45109;Laerm;30447;48.742;8.972;2024-02-16T08:20:04;45.37;41.06;58.77;;
45109;Laerm;30447;48.742;8.972;2024-02-16T08:22:31;45.22;41.75;58.71;;
45109;Laerm;30447;48.742;8.972;2024-02-16T08:24:58;44.41;41.68;53.53;;
45109;Laerm;30447;48.742;8.972;2024-02-16T08:27:25;44.60;41.82;58.85;;
45109;Laerm;30447;48.742;8.972;2024-02-16T08:29:52;44.20;40.98;62.39;;
45109;Laerm;30447;48.742;8.972;2024-02-16T08:32:18;43.82;40.62;55.37;;
45109;Laerm;30447;48.742;8.972;2024-02-16T08:34:47;43.85;40.80;60.14;;
45109;Laerm;30447;48.742;8.972;2024-02-16T08:37:16;44.31;40.33;57.79;;
45109;Laerm;30447;48.742;8.972;2024-02-16T08:39:43;44.02;39.70;64.61;;
45109;Laerm;30447;48.742;8.972;2024-02-16T08:42:09;42.85;40.13;54.71;;
45109;Laerm;30447;48.742;8.972;2024-02-16T08:44:37;45.24;40.80;59.16;;
45109;Laerm;30447;48.742;8.972;2024-02-16T08:47:07;61.68;39.81;69.66;;
45109;Laerm;30447;48.742;8.972;2024-02-16T08:49:34;58.75;40.03;69.45;;
45109;Laerm;30447;48.742;8.972;2024-02-16T08:52:01;43.55;39.78;55.14;;
45109;Laerm;30447;48.742;8.972;2024-02-16T08:54:28;42.46;39.46;51.78;;
45109;Laerm;30447;48.742;8.972;2024-02-16T08:56:55;49.21;39.34;68.53;;
45109;Laerm;30447;48.742;8.972;2024-02-16T08:59:22;43.88;38.95;59.00;;
45109;Laerm;30447;48.742;8.972;2024-02-16T09:01:48;42.32;39.58;51.12;;
45109;Laerm;30447;48.742;8.972;2024-02-16T09:04:15;42.85;39.08;57.81;;
45109;Laerm;30447;48.742;8.972;2024-02-16T09:06:42;42.85;38.95;52.37;;
45109;Laerm;30447;48.742;8.972;2024-02-16T09:09:08;45.25;39.46;57.51;;
45109;Laerm;30447;48.742;8.972;2024-02-16T09:11:35;42.98;39.08;52.67;;
45109;Laerm;30447;48.742;8.972;2024-02-16T09:14:02;42.44;38.52;53.73;;
45109;Laerm;30447;48.742;8.972;2024-02-16T09:16:29;44.65;38.52;58.86;;
45109;Laerm;30447;48.742;8.972;2024-02-16T09:18:58;41.63;37.52;56.10;;
45109;Laerm;30447;48.742;8.972;2024-02-16T09:21:25;41.12;37.32;49.14;;
45109;Laerm;30447;48.742;8.972;2024-02-16T09:23:54;47.77;37.88;68.95;;
45109;Laerm;30447;48.742;8.972;2024-02-16T09:26:24;46.61;38.21;61.93;;
45109;Laerm;30447;48.742;8.972;2024-02-16T09:28:57;56.68;38.21;67.83;;
45109;Laerm;30447;48.742;8.972;2024-02-16T09:31:24;44.15;38.37;57.49;;
45109;Laerm;30447;48.742;8.972;2024-02-16T09:33:51;44.67;38.37;59.64;;
45109;Laerm;30447;48.742;8.972;2024-02-16T09:36:18;44.35;38.37;56.44;;
45109;Laerm;30447;48.742;8.972;2024-02-16T09:38:45;45.33;38.37;66.48;;
45109;Laerm;30447;48.742;8.972;2024-02-16T09:41:13;43.78;38.81;54.35;;
45109;Laerm;30447;48.742;8.972;2024-02-16T09:43:39;42.07;38.21;59.42;;
45109;Laerm;30447;48.742;8.972;2024-02-16T09:46:08;45.90;39.08;64.42;;
45109;Laerm;30447;48.742;8.972;2024-02-16T09:48:35;44.40;39.46;58.06;;
45109;Laerm;30447;48.742;8.972;2024-02-16T09:51:02;42.42;39.70;48.96;;
45109;Laerm;30447;48.742;8.972;2024-02-16T09:53:29;42.73;39.58;46.84;;
45109;Laerm;30447;48.742;8.972;2024-02-16T09:55:56;42.61;39.78;48.88;;
45109;Laerm;30447;48.742;8.972;2024-02-16T09:58:23;46.35;40.13;70.73;;
45109;Laerm;30447;48.742;8.972;2024-02-16T10:00:52;43.38;39.21;63.89;;
45109;Laerm;30447;48.742;8.972;2024-02-16T10:03:28;42.54;38.37;52.01;;
45109;Laerm;30447;48.742;8.972;2024-02-16T10:06:06;41.93;38.52;50.97;;
45109;Laerm;30447;48.742;8.972;2024-02-16T10:08:34;44.33;38.81;58.54;;
45109;Laerm;30447;48.742;8.972;2024-02-16T10:11:05;45.88;38.05;71.61;;
45109;Laerm;30447;48.742;8.972;2024-02-16T10:13:32;54.42;37.52;64.52;;
45109;Laerm;30447;48.742;8.972;2024-02-16T10:16:11;57.52;38.05;66.05;;
45109;Laerm;30447;48.742;8.972;2024-02-16T10:18:38;46.78;36.69;72.22;;
45109;Laerm;30447;48.742;8.972;2024-02-16T10:21:05;53.08;36.45;63.44;;
45109;Laerm;30447;48.742;8.972;2024-02-16T10:23:32;49.79;36.69;69.18;;
45109;Laerm;30447;48.742;8.972;2024-02-16T10:25:58;41.83;35.94;54.19;;
45109;Laerm;30447;48.742;8.972;2024-02-16T10:28:28;41.08;36.91;55.75;;
45109;Laerm;30447;48.742;8.972;2024-02-16T10:30:59;41.81;36.20;56.86;;
45109;Laerm;30447;48.742;8.972;2024-02-16T10:33:32;43.27;36.45;56.65;;
45109;Laerm;30447;48.742;8.972;2024-02-16T10:36:00;44.03;36.45;60.03;;
45109;Laerm;30447;48.742;8.972;2024-02-16T10:38:30;57.73;37.12;69.59;;
45109;Laerm;30447;48.742;8.972;2024-02-16T10:40:59;41.14;35.94;53.84;;
45109;Laerm;30447;48.742;8.972;2024-02-16T10:43:28;53.01;36.20;66.19;;
45109;Laerm;30447;48.742;8.972;2024-02-16T10:45:57;48.03;35.36;64.84;;
45109;Laerm;30447;48.742;8.972;2024-02-16T10:48:23;41.09;35.36;52.45;;
45109;Laerm;30447;48.742;8.972;2024-02-16T10:50:52;40.13;36.20;47.72;;
45109;Laerm;30447;48.742;8.972;2024-02-16T10:53:26;41.49;36.20;60.08;;
45109;Laerm;30447;48.742;8.972;2024-02-16T10:55:57;41.63;36.69;52.90;;
45109;Laerm;30447;48.742;8.972;2024-02-16T10:58:27;44.35;36.91;60.98;;
45109;Laerm;30447;48.742;8.972;2024-02-16T11:00:56;43.67;37.70;58.37;;
45109;Laerm;30447;48.742;8.972;2024-02-16T11:03:26;43.97;36.91;62.96;;
45109;Laerm;30447;48.742;8.972;2024-02-16T11:05:54;42.44;36.69;61.60;;
45109;Laerm;30447;48.742;8.972;2024-02-16T11:08:24;44.13;35.94;67.66;;
45109;Laerm;30447;48.742;8.972;2024-02-16T11:11:01;41.48;36.69;60.73;;
45109;Laerm;30447;48.742;8.972;2024-02-16T11:13:34;41.59;36.20;53.43;;
45109;Laerm;30447;48.742;8.972;2024-02-16T11:16:09;43.28;36.45;67.34;;
45109;Laerm;30447;48.742;8.972;2024-02-16T11:18:42;42.94;35.31;59.17;;
45109;Laerm;30447;48.742;8.972;2024-02-16T11:21:15;44.60;35.94;71.09;;
45109;Laerm;30447;48.742;8.972;2024-02-16T11:23:44;42.08;35.94;55.63;;
45109;Laerm;30447;48.742;8.972;2024-02-16T11:26:12;42.38;35.04;64.52;;
45109;Laerm;30447;48.742;8.972;2024-02-16T11:28:42;41.63;34.31;56.62;;
45109;Laerm;30447;48.742;8.972;2024-02-16T11:31:09;44.70;35.36;63.87;;
45109;Laerm;30447;48.742;8.972;2024-02-16T11:33:43;40.73;35.66;54.00;;
45109;Laerm;30447;48.742;8.972;2024-02-16T11:36:10;41.85;35.04;63.32;;
45109;Laerm;30447;48.742;8.972;2024-02-16T11:38:38;55.23;35.36;72.24;;
45109;Laerm;30447;48.742;8.972;2024-02-16T11:41:07;65.07;35.94;81.92;;
45109;Laerm;30447;48.742;8.972;2024-02-16T11:43:34;41.51;35.36;62.67;;
45109;Laerm;30447;48.742;8.972;2024-02-16T11:46:15;42.08;36.69;64.20;;
45109;Laerm;30447;48.742;8.972;2024-02-16T11:48:43;42.96;36.91;65.71;;
45109;Laerm;30447;48.742;8.972;2024-02-16T11:51:09;42.02;35.94;52.75;;
45109;Laerm;30447;48.742;8.972;2024-02-16T11:53:36;39.71;35.66;45.72;;
45109;Laerm;30447;48.742;8.972;2024-02-16T11:56:03;40.40;35.66;49.56;;
45109;Laerm;30447;48.742;8.972;2024-02-16T11:58:30;39.95;35.36;45.89;;
45109;Laerm;30447;48.742;8.972;2024-02-16T12:00:57;45.88;35.04;64.38;;
45109;Laerm;30447;48.742;8.972;2024-02-16T12:03:26;39.60;34.31;53.90;;
45109;Laerm;30447;48.742;8.972;2024-02-16T12:05:57;42.21;34.69;57.96;;
45109;Laerm;30447;48.742;8.972;2024-02-16T12:08:35;43.28;35.94;67.13;;
45109;Laerm;30447;48.742;8.972;2024-02-16T12:11:02;41.19;35.04;58.38;;
45109;Laerm;30447;48.742;8.972;2024-02-16T12:13:29;43.91;36.20;67.34;;
45109;Laerm;30447;48.742;8.972;2024-02-16T12:15:55;58.41;34.31;72.87;;
45109;Laerm;30447;48.742;8.972;2024-02-16T12:18:27;55.53;35.04;69.32;;
45109;Laerm;30447;48.742;8.972;2024-02-16T12:21:05;54.86;35.04;74.86;;
45109;Laerm;30447;48.742;8.972;2024-02-16T12:23:33;52.12;34.69;67.51;;
45109;Laerm;30447;48.742;8.972;2024-02-16T12:26:02;41.44;34.31;63.20;;
45109;Laerm;30447;48.742;8.972;2024-02-16T12:28:30;41.77;35.94;57.57;;
45109;Laerm;30447;48.742;8.972;2024-02-16T12:31:00;44.21;36.69;69.37;;
45109;Laerm;30447;48.742;8.972;2024-02-16T12:33:27;42.53;35.66;62.94;;
45109;Laerm;30447;48.742;8.972;2024-02-16T12:35:54;43.60;37.12;58.56;;
45109;Laerm;30447;48.742;8.972;2024-02-16T12:38:20;44.73;37.32;68.50;;
45109;Laerm;30447;48.742;8.972;2024-02-16T12:40:47;40.35;35.66;48.92;;
45109;Laerm;30447;48.742;8.972;2024-02-16T12:43:14;50.90;35.66;70.40;;
45109;Laerm;30447;48.742;8.972;2024-02-16T12:45:41;40.49;35.94;48.37;;
45109;Laerm;30447;48.742;8.972;2024-02-16T12:48:08;41.06;36.20;57.76;;
45109;Laerm;30447;48.742;8.972;2024-02-16T12:50:36;46.97;35.36;61.25;;
45109;Laerm;30447;48.742;8.972;2024-02-16T12:53:05;49.64;35.36;68.85;;
45109;Laerm;30447;48.742;8.972;2024-02-16T12:55:32;50.79;35.04;71.29;;
45109;Laerm;30447;48.742;8.972;2024-02-16T12:57:58;40.82;34.69;48.42;;
45109;Laerm;30447;48.742;8.972;2024-02-16T13:00:25;40.78;35.94;52.41;;
45109;Laerm;30447;48.742;8.972;2024-02-16T13:02:52;55.66;36.45;69.37;;
45109;Laerm;30447;48.742;8.972;2024-02-16T13:05:18;49.94;36.69;72.69;;
45109;Laerm;30447;48.742;8.972;2024-02-16T13:07:45;60.36;36.91;71.84;;
45109;Laerm;30447;48.742;8.972;2024-02-16T13:10:12;56.28;37.88;67.00;;
45109;Laerm;30447;48.742;8.972;2024-02-16T13:12:38;43.02;37.32;58.61;;
45109;Laerm;30447;48.742;8.972;2024-02-16T13:15:05;58.82;37.12;71.27;;
45109;Laerm;30447;48.742;8.972;2024-02-16T13:17:33;44.84;38.05;64.40;;
45109;Laerm;30447;48.742;8.972;2024-02-16T13:20:01;45.26;38.52;62.13;;
45109;Laerm;30447;48.742;8.972;2024-02-16T13:22:33;45.26;39.70;64.47;;
45109;Laerm;30447;48.742;8.972;2024-02-16T13:25:00;44.57;39.58;66.72;;
45109;Laerm;30447;48.742;8.972;2024-02-16T13:27:27;49.11;39.70;61.82;;
45109;Laerm;30447;48.742;8.972;2024-02-16T13:29:53;51.01;38.37;61.54;;
45109;Laerm;30447;48.742;8.972;2024-02-16T13:32:20;44.64;38.95;59.43;;
45109;Laerm;30447;48.742;8.972;2024-02-16T13:34:47;43.61;39.21;60.64;;
45109;Laerm;30447;48.742;8.972;2024-02-16T13:37:13;44.61;39.34;59.23;;
45109;Laerm;30447;48.742;8.972;2024-02-16T13:39:40;41.76;38.52;54.06;;
45109;Laerm;30447;48.742;8.972;2024-02-16T13:42:07;41.94;38.05;53.68;;
45109;Laerm;30447;48.742;8.972;2024-02-16T13:44:34;42.34;38.05;62.45;;
45109;Laerm;30447;48.742;8.972;2024-02-16T13:47:01;42.51;39.21;58.68;;